Observation data for Spur on 04/22/2019      Previous  Date  Next       Current Mesonet Observations  Soil Data  Daily Summary Page  Observations in Plain Language
KSP1 220500Z 20006KT 18/08 A2985 RMK A01 T01840083  RH  053%=      5-min Rain = 0
KSP1 220505Z 20006KT 18/08 A2985 RMK A01 T01830084  RH  054%=      5-min Rain = 0
KSP1 220510Z 20005KT 18/08 A2985 RMK A01 T01820084  RH  055%=      5-min Rain = 0
KSP1 220515Z 20005KT 18/09 A2985 RMK A01 T01790086  RH  056%=      5-min Rain = 0
KSP1 220520Z 22003KT 18/09 A2986 RMK A01 T01760086  RH  057%=      5-min Rain = 0
KSP1 220525Z 20003KT 17/09 A2986 RMK A01 T01730085  RH  058%=      5-min Rain = 0
KSP1 220530Z 19005KT 17/09 A2986 RMK A01 T01720087  RH  059%=      5-min Rain = 0
KSP1 220535Z 19006KT 18/09 A2986 RMK A01 T01760090  RH  059%=      5-min Rain = 0
KSP1 220540Z 19007KT 18/10 A2986 RMK A01 T01800096  RH  060%=      5-min Rain = 0
KSP1 220545Z 19008KT 19/10 A2986 RMK A01 T01860102  RH  060%=      5-min Rain = 0
KSP1 220550Z 19009KT 19/10 A2987 RMK A01 T01910104  RH  059%=      5-min Rain = 0
KSP1 220555Z 19009KT 20/11 A2986 RMK A01 T01950106  RH  058%=      5-min Rain = 0
KSP1 220600Z 20009KT 20/11 A2987 RMK A01 T01960108  RH  059%=      5-min Rain = 0
KSP1 220605Z 20009KT 20/11 A2987 RMK A01 T01970111  RH  060%=      5-min Rain = 0
KSP1 220610Z 20009KT 20/11 A2987 RMK A01 T01980112  RH  060%=      5-min Rain = 0
KSP1 220615Z 20009KT 20/11 A2987 RMK A01 T01970114  RH  061%=      5-min Rain = 0
KSP1 220620Z 20009KT 20/12 A2987 RMK A01 T01970116  RH  062%=      5-min Rain = 0
KSP1 220625Z 21010KT 20/12 A2987 RMK A01 T01980118  RH  062%=      5-min Rain = 0
KSP1 220630Z 21010KT 20/12 A2987 RMK A01 T01990120  RH  063%=      5-min Rain = 0
KSP1 220635Z 21010KT 20/12 A2987 RMK A01 T01980121  RH  063%=      5-min Rain = 0
KSP1 220640Z 21010KT 20/12 A2987 RMK A01 T01980123  RH  064%=      5-min Rain = 0
KSP1 220645Z 21009KT 20/12 A2987 RMK A01 T01980124  RH  065%=      5-min Rain = 0
KSP1 220650Z 21010G15KT 20/13 A2987 RMK A01 T01980125  RH  065%=      5-min Rain = 0
KSP1 220655Z 21009KT 20/13 A2988 RMK A01 T01970125  RH  066%=      5-min Rain = 0
KSP1 220700Z 21009KT 20/13 A2988 RMK A01 T01970126  RH  066%=      5-min Rain = 0
KSP1 220705Z 21009KT 20/13 A2988 RMK A01 T01960126  RH  067%=      5-min Rain = 0
KSP1 220710Z 21007KT 19/13 A2988 RMK A01 T01940126  RH  067%=      5-min Rain = 0
KSP1 220715Z 21006KT 19/13 A2989 RMK A01 T01930126  RH  068%=      5-min Rain = 0
KSP1 220720Z 20005KT 19/13 A2988 RMK A01 T01910126  RH  069%=      5-min Rain = 0
KSP1 220725Z 19004KT 19/13 A2988 RMK A01 T01880125  RH  070%=      5-min Rain = 0
KSP1 220730Z 19003KT 19/13 A2989 RMK A01 T01870126  RH  070%=      5-min Rain = 0
KSP1 220735Z 20003KT 19/13 A2988 RMK A01 T01860125  RH  070%=      5-min Rain = 0
KSP1 220740Z 21002KT 19/13 A2989 RMK A01 T01860125  RH  071%=      5-min Rain = 0
KSP1 220745Z 22002KT 18/13 A2989 RMK A01 T01840125  RH  071%=      5-min Rain = 0
KSP1 220750Z 22002KT 18/13 A2988 RMK A01 T01830125  RH  072%=      5-min Rain = 0
KSP1 220755Z 25001KT 18/12 A2988 RMK A01 T01790122  RH  072%=      5-min Rain = 0
KSP1 220800Z 30002KT 17/12 A2988 RMK A01 T01660117  RH  076%=      5-min Rain = 0
KSP1 220805Z 25002KT 16/12 A2988 RMK A01 T01610120  RH  080%=      5-min Rain = 0
KSP1 220810Z 23004KT 16/12 A2988 RMK A01 T01610122  RH  081%=      5-min Rain = 0
KSP1 220815Z 22005KT 17/13 A2988 RMK A01 T01660125  RH  080%=      5-min Rain = 0
KSP1 220820Z 22006KT 17/13 A2988 RMK A01 T01700125  RH  078%=      5-min Rain = 0
KSP1 220825Z 22007KT 17/13 A2987 RMK A01 T01740126  RH  076%=      5-min Rain = 0
KSP1 220830Z 22008KT 17/13 A2987 RMK A01 T01730125  RH  076%=      5-min Rain = 0
KSP1 220835Z 21007KT 18/13 A2987 RMK A01 T01750127  RH  076%=      5-min Rain = 0
KSP1 220840Z 21007KT 18/13 A2987 RMK A01 T01760127  RH  076%=      5-min Rain = 0
KSP1 220845Z 21006KT 18/13 A2987 RMK A01 T01750127  RH  076%=      5-min Rain = 0
KSP1 220850Z 21006KT 17/13 A2987 RMK A01 T01740126  RH  076%=      5-min Rain = 0
KSP1 220855Z 21006KT 17/13 A2987 RMK A01 T01720126  RH  077%=      5-min Rain = 0
KSP1 220900Z 21005KT 17/13 A2987 RMK A01 T01690125  RH  078%=      5-min Rain = 0
KSP1 220905Z 21005KT 17/13 A2987 RMK A01 T01660125  RH  080%=      5-min Rain = 0
KSP1 220910Z 20004KT 17/13 A2987 RMK A01 T01650125  RH  080%=      5-min Rain = 0
KSP1 220915Z 19003KT 16/13 A2988 RMK A01 T01640125  RH  081%=      5-min Rain = 0
KSP1 220920Z 16002KT 16/13 A2988 RMK A01 T01640125  RH  081%=      5-min Rain = 0
KSP1 220925Z 16001KT 16/12 A2988 RMK A01 T01640124  RH  080%=      5-min Rain = 0
KSP1 220930Z 15001KT 16/12 A2988 RMK A01 T01620123  RH  080%=      5-min Rain = 0
KSP1 220935Z 17000KT 16/12 A2988 RMK A01 T01590121  RH  081%=      5-min Rain = 0
KSP1 220940Z 20001KT 16/12 A2988 RMK A01 T01580122  RH  082%=      5-min Rain = 0
KSP1 220945Z 21001KT 16/12 A2987 RMK A01 T01580122  RH  082%=      5-min Rain = 0
KSP1 220950Z 21002KT 16/12 A2988 RMK A01 T01580123  RH  083%=      5-min Rain = 0
KSP1 220955Z 20003KT 16/12 A2988 RMK A01 T01590124  RH  082%=      5-min Rain = 0
KSP1 221000Z 21003KT 16/12 A2988 RMK A01 T01570119  RH  081%=      5-min Rain = 0
KSP1 221005Z 21003KT 15/12 A2988 RMK A01 T01530118  RH  083%=      5-min Rain = 0
KSP1 221010Z 21003KT 15/12 A2987 RMK A01 T01530120  RH  084%=      5-min Rain = 0
KSP1 221015Z 21004KT 15/12 A2987 RMK A01 T01520120  RH  084%=      5-min Rain = 0
KSP1 221020Z 22004KT 15/12 A2988 RMK A01 T01510120  RH  085%=      5-min Rain = 0
KSP1 221025Z 21003KT 15/12 A2988 RMK A01 T01500119  RH  085%=      5-min Rain = 0
KSP1 221030Z 23002KT 15/12 A2988 RMK A01 T01480117  RH  085%=      5-min Rain = 0
KSP1 221035Z 27002KT 14/11 A2988 RMK A01 T01400109  RH  084%=      5-min Rain = 0
KSP1 221040Z 30002KT 14/11 A2988 RMK A01 T01360110  RH  088%=      5-min Rain = 0
KSP1 221045Z 35001KT 14/12 A2988 RMK A01 T01390116  RH  089%=      5-min Rain = 0
KSP1 221050Z 01003KT 14/12 A2989 RMK A01 T01390116  RH  089%=      5-min Rain = 0
KSP1 221055Z 02004KT 14/12 A2989 RMK A01 T01410118  RH  090%=      5-min Rain = 0
KSP1 221100Z 05002KT 14/12 A2989 RMK A01 T01420120  RH  089%=      5-min Rain = 0
KSP1 221105Z 17002KT 15/12 A2989 RMK A01 T01450122  RH  090%=      5-min Rain = 0
KSP1 221110Z 19003KT 15/12 A2989 RMK A01 T01460122  RH  089%=      5-min Rain = 0
KSP1 221115Z 20004KT 14/12 A2989 RMK A01 T01430117  RH  088%=      5-min Rain = 0
KSP1 221120Z 25002KT 14/12 A2989 RMK A01 T01400115  RH  088%=      5-min Rain = 0
KSP1 221125Z 29003KT 14/11 A2989 RMK A01 T01360112  RH  089%=      5-min Rain = 0
KSP1 221130Z 30003KT 14/11 A2989 RMK A01 T01350112  RH  089%=      5-min Rain = 0
KSP1 221135Z 34003KT 13/11 A2989 RMK A01 T01330111  RH  090%=      5-min Rain = 0
KSP1 221140Z 31003KT 13/11 A299 RMK A01 T01340114  RH  091%=      5-min Rain = 0
KSP1 221145Z 29003KT 14/12 A2989 RMK A01 T01360116  RH  091%=      5-min Rain = 0
KSP1 221150Z 31002KT 14/12 A299 RMK A01 T01370116  RH  091%=      5-min Rain = 0
KSP1 221155Z 34002KT 14/12 A299 RMK A01 T01370117  RH  091%=      5-min Rain = 0
KSP1 221200Z 33004KT 14/12 A2991 RMK A01 T01390118  RH  091%=      5-min Rain = 0
KSP1 221205Z 32007KT 14/11 A2991 RMK A01 T01350114  RH  090%=      5-min Rain = 0
KSP1 221210Z 33010KT 14/12 A2993 RMK A01 T01380119  RH  091%=      5-min Rain = 0
KSP1 221215Z 32007KT 14/12 A2993 RMK A01 T01440124  RH  091%=      5-min Rain = 0
KSP1 221220Z 31006KT 15/12 A2993 RMK A01 T01470124  RH  090%=      5-min Rain = 0
KSP1 221225Z 32006KT 15/12 A2994 RMK A01 T01460123  RH  089%=      5-min Rain = 0
KSP1 221230Z 34004KT 15/12 A2994 RMK A01 T01460123  RH  090%=      5-min Rain = 0
KSP1 221235Z 35007KT 15/12 A2995 RMK A01 T01460124  RH  090%=      5-min Rain = 0
KSP1 221240Z 34008KT 15/13 A2995 RMK A01 T01470125  RH  090%=      5-min Rain = 0
KSP1 221245Z 34007KT 15/13 A2996 RMK A01 T01500128  RH  090%=      5-min Rain = 0
KSP1 221250Z 34004KT 15/13 A2996 RMK A01 T01520128  RH  089%=      5-min Rain = 0
KSP1 221255Z 36006KT 15/13 A2997 RMK A01 T01530129  RH  089%=      5-min Rain = 0
KSP1 221300Z 00004KT 16/13 A2997 RMK A01 T01570131  RH  088%=      5-min Rain = 0
KSP1 221305Z 35004KT 16/13 A2997 RMK A01 T01600131  RH  087%=      5-min Rain = 0
KSP1 221310Z 36003KT 16/13 A2997 RMK A01 T01600131  RH  086%=      5-min Rain = 0
KSP1 221315Z 02002KT 16/13 A2998 RMK A01 T01620132  RH  086%=      5-min Rain = 0
KSP1 221320Z 03003KT 16/13 A2998 RMK A01 T01640133  RH  086%=      5-min Rain = 0
KSP1 221325Z 34001KT 17/13 A2998 RMK A01 T01650134  RH  085%=      5-min Rain = 0
KSP1 221330Z 33001KT 17/13 A2998 RMK A01 T01660134  RH  085%=      5-min Rain = 0
KSP1 221335Z 35003KT 17/14 A2998 RMK A01 T01670135  RH  085%=      5-min Rain = 0
KSP1 221340Z 35004KT 17/14 A2999 RMK A01 T01680136  RH  085%=      5-min Rain = 0
KSP1 221345Z 33003KT 17/14 A2998 RMK A01 T01690137  RH  085%=      5-min Rain = 0
KSP1 221350Z 35006KT 17/14 A2999 RMK A01 T01710137  RH  084%=      5-min Rain = 0
KSP1 221355Z 02006KT 17/13 A2999 RMK A01 T01730133  RH  081%=      5-min Rain = 0
KSP1 221400Z 02008KT 18/13 A2999 RMK A01 T01750126  RH  076%=      5-min Rain = 0
KSP1 221405Z 02007KT 17/11 A2999 RMK A01 T01730110  RH  069%=      5-min Rain = 0
KSP1 221410Z 03008KT 17/09 A2999 RMK A01 T01690093  RH  063%=      5-min Rain = 0
KSP1 221415Z 04006KT 17/09 A2999 RMK A01 T01670090  RH  063%=      5-min Rain = 0
KSP1 221420Z 05006KT 17/09 A30 RMK A01 T01670090  RH  062%=      5-min Rain = 0
KSP1 221425Z 04006KT 17/09 A30 RMK A01 T01670089  RH  062%=      5-min Rain = 0
KSP1 221430Z 03005KT 17/09 A30 RMK A01 T01710089  RH  061%=      5-min Rain = 0
KSP1 221435Z 03007KT 18/09 A30 RMK A01 T01760090  RH  059%=      5-min Rain = 0
KSP1 221440Z 02007KT 18/09 A30 RMK A01 T01760088  RH  058%=      5-min Rain = 0
KSP1 221445Z 03008KT 17/09 A30 RMK A01 T01730088  RH  059%=      5-min Rain = 0
KSP1 221450Z 02008KT 17/09 A30 RMK A01 T01730089  RH  060%=      5-min Rain = 0
KSP1 221455Z 03008KT 18/09 A30 RMK A01 T01760091  RH  059%=      5-min Rain = 0
KSP1 221500Z 02010KT 18/09 A30 RMK A01 T01820091  RH  057%=      5-min Rain = 0
KSP1 221505Z 02010KT 18/09 A30 RMK A01 T01840091  RH  056%=      5-min Rain = 0
KSP1 221510Z 04010KT 18/09 A30 RMK A01 T01830089  RH  056%=      5-min Rain = 0
KSP1 221515Z 03010KT 18/09 A30 RMK A01 T01820088  RH  056%=      5-min Rain = 0
KSP1 221520Z 03010KT 18/09 A3001 RMK A01 T01820090  RH  057%=      5-min Rain = 0
KSP1 221525Z 03009KT 18/09 A3001 RMK A01 T01840089  RH  055%=      5-min Rain = 0
KSP1 221530Z 03007KT 19/09 A3001 RMK A01 T01860093  RH  056%=      5-min Rain = 0
KSP1 221535Z 03010KT 19/09 A3001 RMK A01 T01860091  RH  055%=      5-min Rain = 0
KSP1 221540Z 03008KT 19/09 A3001 RMK A01 T01850091  RH  056%=      5-min Rain = 0
KSP1 221545Z 03009KT 18/09 A3001 RMK A01 T01830090  RH  056%=      5-min Rain = 0
KSP1 221550Z 03009KT 18/09 A3001 RMK A01 T01830092  RH  057%=      5-min Rain = 0
KSP1 221555Z 03010KT 18/09 A3001 RMK A01 T01830091  RH  056%=      5-min Rain = 0
KSP1 221600Z 04009KT 18/09 A3001 RMK A01 T01840091  RH  056%=      5-min Rain = 0
KSP1 221605Z 04009KT 19/09 A3001 RMK A01 T01850092  RH  056%=      5-min Rain = 0
KSP1 221610Z 03010KT 19/09 A3001 RMK A01 T01860092  RH  056%=      5-min Rain = 0
KSP1 221615Z 03010KT 19/09 A3001 RMK A01 T01850092  RH  057%=      5-min Rain = 0
KSP1 221620Z 03010G15KT 19/09 A3001 RMK A01 T01850093  RH  057%=      5-min Rain = 0
KSP1 221625Z 04010G15KT 19/10 A3001 RMK A01 T01880096  RH  057%=      5-min Rain = 0
KSP1 221630Z 03009KT 19/10 A3001 RMK A01 T01880096  RH  057%=      5-min Rain = 0
KSP1 221635Z 04009KT 19/10 A3001 RMK A01 T01900097  RH  056%=      5-min Rain = 0
KSP1 221640Z 03012KT 19/09 A3001 RMK A01 T01870093  RH  056%=      5-min Rain = 0
KSP1 221645Z 03010KT 19/09 A3001 RMK A01 T01860094  RH  057%=      5-min Rain = 0
KSP1 221650Z 03009KT 19/10 A3001 RMK A01 T01870095  RH  057%=      5-min Rain = 0
KSP1 221655Z 05009KT 19/10 A3001 RMK A01 T01890098  RH  057%=      5-min Rain = 0
KSP1 221700Z 05010KT 19/10 A3002 RMK A01 T01890098  RH  057%=      5-min Rain = 0
KSP1 221705Z 04008KT 19/10 A3002 RMK A01 T01900100  RH  058%=      5-min Rain = 0
KSP1 221710Z 05009KT 19/10 A3002 RMK A01 T01930100  RH  057%=      5-min Rain = 0
KSP1 221715Z 04009KT 19/10 A3001 RMK A01 T01940101  RH  057%=      5-min Rain = 0
KSP1 221720Z 04009KT 19/10 A3002 RMK A01 T01940101  RH  057%=      5-min Rain = 0
KSP1 221725Z 05009G14KT 19/10 A3002 RMK A01 T01940102  RH  057%=      5-min Rain = 0
KSP1 221730Z 05009KT 19/10 A3002 RMK A01 T01930101  RH  057%=      5-min Rain = 0
KSP1 221735Z 04009KT 19/10 A3002 RMK A01 T01930100  RH  057%=      5-min Rain = 0
KSP1 221740Z 05009G14KT 19/10 A3002 RMK A01 T01940102  RH  057%=      5-min Rain = 0
KSP1 221745Z 06008KT 20/10 A3002 RMK A01 T01960103  RH  057%=      5-min Rain = 0
KSP1 221750Z 05009KT 20/11 A3003 RMK A01 T01980106  RH  057%=      5-min Rain = 0
KSP1 221755Z 05006KT 20/11 A3003 RMK A01 T01980105  RH  057%=      5-min Rain = 0
KSP1 221800Z 06008KT 20/11 A3003 RMK A01 T02000105  RH  056%=      5-min Rain = 0
KSP1 221805Z 06008KT 20/11 A3002 RMK A01 T02010106  RH  056%=      5-min Rain = 0
KSP1 221810Z 04008KT 20/11 A3002 RMK A01 T02030107  RH  056%=      5-min Rain = 0
KSP1 221815Z 05009KT 20/11 A3002 RMK A01 T02030107  RH  056%=      5-min Rain = 0
KSP1 221820Z 04009KT 20/11 A3002 RMK A01 T02040110  RH  057%=      5-min Rain = 0
KSP1 221825Z 05009KT 21/11 A3001 RMK A01 T02060109  RH  055%=      5-min Rain = 0
KSP1 221830Z 03009KT 21/11 A3001 RMK A01 T02070108  RH  055%=      5-min Rain = 0
KSP1 221835Z 03009KT 21/11 A3001 RMK A01 T02060109  RH  055%=      5-min Rain = 0
KSP1 221840Z 04008G13KT 21/11 A3001 RMK A01 T02060109  RH  056%=      5-min Rain = 0
KSP1 221845Z 04009KT 21/11 A3001 RMK A01 T02060111  RH  056%=      5-min Rain = 0
KSP1 221850Z 04009KT 21/11 A30 RMK A01 T02100114  RH  056%=      5-min Rain = 0
KSP1 221855Z 04009KT 21/11 A3001 RMK A01 T02120113  RH  055%=      5-min Rain = 0
KSP1 221900Z 06007KT 21/11 A3001 RMK A01 T02120114  RH  055%=      5-min Rain = 0
KSP1 221905Z 05008KT 21/11 A3001 RMK A01 T02120113  RH  055%=      5-min Rain = 0
KSP1 221910Z 02007KT 21/11 A3001 RMK A01 T02110113  RH  055%=      5-min Rain = 0
KSP1 221915Z 03008G14KT 21/11 A3001 RMK A01 T02130114  RH  055%=      5-min Rain = 0
KSP1 221920Z 03010KT 21/11 A3001 RMK A01 T02120113  RH  055%=      5-min Rain = 0
KSP1 221925Z 04010KT 21/11 A3001 RMK A01 T02110113  RH  056%=      5-min Rain = 0
KSP1 221930Z 03008KT 21/11 A3001 RMK A01 T02100113  RH  056%=      5-min Rain = 0
KSP1 221935Z 03009KT 21/11 A3001 RMK A01 T02100112  RH  055%=      5-min Rain = 0
KSP1 221940Z 03009G14KT 21/11 A3001 RMK A01 T02090112  RH  056%=      5-min Rain = 0
KSP1 221945Z 03010G15KT 21/11 A30 RMK A01 T02090112  RH  056%=      5-min Rain = 0
KSP1 221950Z 03009KT 21/11 A3001 RMK A01 T02080113  RH  057%=      5-min Rain = 0
KSP1 221955Z 05010KT 21/11 A3001 RMK A01 T02060113  RH  057%=      5-min Rain = 0
KSP1 222000Z 06010KT 21/11 A3001 RMK A01 T02060113  RH  057%=      5-min Rain = 0
KSP1 222005Z 06008KT 21/11 A3002 RMK A01 T02070113  RH  057%=      5-min Rain = 0
KSP1 222010Z 05009KT 21/11 A3002 RMK A01 T02080113  RH  056%=      5-min Rain = 0
KSP1 222015Z 06009KT 21/11 A3001 RMK A01 T02090113  RH  056%=      5-min Rain = 0
KSP1 222020Z 06009KT 21/11 A3001 RMK A01 T02080113  RH  056%=      5-min Rain = 0
KSP1 222025Z 06008KT 21/11 A3001 RMK A01 T02100114  RH  056%=      5-min Rain = 0
KSP1 222030Z 07009G15KT 21/11 A3002 RMK A01 T02090111  RH  055%=      5-min Rain = 0
KSP1 222035Z 05009KT 21/11 A3001 RMK A01 T02080113  RH  057%=      5-min Rain = 0
KSP1 222040Z 05009KT 21/11 A3001 RMK A01 T02100114  RH  056%=      5-min Rain = 0
KSP1 222045Z 05006G11KT 21/12 A3002 RMK A01 T02110115  RH  056%=      5-min Rain = 0
KSP1 222050Z 06009KT 21/11 A3001 RMK A01 T02100112  RH  055%=      5-min Rain = 0
KSP1 222055Z 05008G13KT 21/12 A3001 RMK A01 T02100115  RH  056%=      5-min Rain = 0
KSP1 222100Z 05009KT 21/12 A30 RMK A01 T02110116  RH  056%=      5-min Rain = 0
KSP1 222105Z 05010G15KT 21/12 A30 RMK A01 T02120116  RH  056%=      5-min Rain = 0
KSP1 222110Z 05011KT 21/11 A2999 RMK A01 T02110114  RH  056%=      5-min Rain = 0
KSP1 222115Z 04010G16KT 21/12 A30 RMK A01 T02110115  RH  056%=      5-min Rain = 0
KSP1 222120Z 04011KT 21/12 A30 RMK A01 T02090115  RH  057%=      5-min Rain = 0
KSP1 222125Z 04012KT 21/11 A2999 RMK A01 T02080114  RH  057%=      5-min Rain = 0
KSP1 222130Z 04012KT 21/11 A2999 RMK A01 T02090113  RH  056%=      5-min Rain = 0
KSP1 222135Z 04010G15KT 21/11 A2999 RMK A01 T02080114  RH  057%=      5-min Rain = 0
KSP1 222140Z 05010G16KT 21/12 A30 RMK A01 T02070115  RH  058%=      5-min Rain = 0
KSP1 222145Z 04009KT 20/11 A30 RMK A01 T02040114  RH  058%=      5-min Rain = 0
KSP1 222150Z 04008KT 20/12 A3001 RMK A01 T02040115  RH  059%=      5-min Rain = 0
KSP1 222155Z 04009KT 20/12 A3001 RMK A01 T02040117  RH  060%=      5-min Rain = 0
KSP1 222200Z 03010KT 20/12 A3001 RMK A01 T02030117  RH  060%=      5-min Rain = 0
KSP1 222205Z 03011KT 20/12 A3001 RMK A01 T02020117  RH  060%=      5-min Rain = 0
KSP1 222210Z 02009KT 20/12 A3001 RMK A01 T02010118  RH  061%=      5-min Rain = 0
KSP1 222215Z 02009G14KT 20/12 A3001 RMK A01 T02000119  RH  062%=      5-min Rain = 0
KSP1 222220Z 02011KT 20/12 A3001 RMK A01 T01990119  RH  062%=      5-min Rain = 0
KSP1 222225Z 02012G17KT 20/12 A30 RMK A01 T01980119  RH  063%=      5-min Rain = 0
KSP1 222230Z 02011KT 20/12 A3001 RMK A01 T01970119  RH  063%=      5-min Rain = 0
KSP1 222235Z 03009KT 20/12 A3002 RMK A01 T01960119  RH  063%=      5-min Rain = 0
KSP1 222240Z 03010KT 20/12 A3002 RMK A01 T01960119  RH  063%=      5-min Rain = 0
KSP1 222245Z 02009G14KT 20/12 A3001 RMK A01 T01950120  RH  064%=      5-min Rain = 0
KSP1 222250Z 03010KT 20/12 A3002 RMK A01 T01950119  RH  064%=      5-min Rain = 0
KSP1 222255Z 03010KT 20/12 A3002 RMK A01 T01950119  RH  064%=      5-min Rain = 0
KSP1 222300Z 03008KT 19/12 A3002 RMK A01 T01940120  RH  065%=      5-min Rain = 0
KSP1 222305Z 03009KT 19/12 A3002 RMK A01 T01930119  RH  065%=      5-min Rain = 0
KSP1 222310Z 03010KT 19/12 A3002 RMK A01 T01920119  RH  065%=      5-min Rain = 0
KSP1 222315Z 03009KT 19/12 A3002 RMK A01 T01920119  RH  065%=      5-min Rain = 0
KSP1 222320Z 03012KT 19/12 A3001 RMK A01 T01900121  RH  066%=      5-min Rain = 0
KSP1 222325Z 02011G17KT 19/12 A30 RMK A01 T01880123  RH  069%=      5-min Rain = 0
KSP1 222330Z 03011G17KT 19/12 A2999 RMK A01 T01870124  RH  070%=      5-min Rain = 0
KSP1 222335Z 03012KT 19/13 A2998 RMK A01 T01860125  RH  071%=      5-min Rain = 0
KSP1 222340Z 03010KT 19/13 A2999 RMK A01 T01860125  RH  070%=      5-min Rain = 0
KSP1 222345Z 03009G14KT 19/13 A2998 RMK A01 T01860126  RH  071%=      5-min Rain = 0
KSP1 222350Z 03012KT 19/13 A2997 RMK A01 T01850126  RH  071%=      5-min Rain = 0
KSP1 222355Z 02010KT 19/13 A2997 RMK A01 T01850126  RH  071%=      5-min Rain = 0
KSP1 230000Z 03007KT 19/13 A2998 RMK A01 T01850127  RH  072%=      5-min Rain = 0
KSP1 230005Z 03006KT 19/13 A30 RMK A01 T01850127  RH  072%=      5-min Rain = 0
KSP1 230010Z 02005KT 19/13 A30 RMK A01 T01860127  RH  072%=      5-min Rain = 0
KSP1 230015Z 02006KT 19/13 A3001 RMK A01 T01850127  RH  071%=      5-min Rain = 0
KSP1 230020Z 02005KT 19/13 A30 RMK A01 T01850127  RH  072%=      5-min Rain = 0
KSP1 230025Z 01007KT 19/13 A30 RMK A01 T01850128  RH  072%=      5-min Rain = 0
KSP1 230030Z 01007G12KT 18/13 A30 RMK A01 T01840128  RH  073%=      5-min Rain = 0
KSP1 230035Z 01008KT 18/13 A30 RMK A01 T01840129  RH  073%=      5-min Rain = 0
KSP1 230040Z 01009KT 18/13 A30 RMK A01 T01830129  RH  073%=      5-min Rain = 0
KSP1 230045Z 01009KT 18/13 A30 RMK A01 T01830129  RH  074%=      5-min Rain = 0
KSP1 230050Z 02009KT 18/13 A30 RMK A01 T01830129  RH  074%=      5-min Rain = 0
KSP1 230055Z 02009KT 18/13 A30 RMK A01 T01820129  RH  074%=      5-min Rain = 0
KSP1 230100Z 02009KT 18/13 A30 RMK A01 T01820129  RH  074%=      5-min Rain = 0
KSP1 230105Z 02010KT 18/13 A30 RMK A01 T01810129  RH  074%=      5-min Rain = 0
KSP1 230110Z 02009KT 18/13 A30 RMK A01 T01800131  RH  076%=      5-min Rain = 0
KSP1 230115Z 02007KT 18/13 A30 RMK A01 T01760133  RH  079%=      5-min Rain = 0
KSP1 230120Z 02008KT 17/13 A30 RMK A01 T01740134  RH  081%=      5-min Rain = 0
KSP1 230125Z 02010G15KT 17/14 A2999 RMK A01 T01730135  RH  082%=      5-min Rain = 0
KSP1 230130Z 03011G16KT 17/14 A2997 RMK A01 T01710135  RH  083%=      5-min Rain = 0
KSP1 230135Z 03013G18KT 17/13 A2997 RMK A01 T01700134  RH  083%=      5-min Rain = 0
KSP1 230140Z 03011G17KT 17/13 A2997 RMK A01 T01690134  RH  083%=      5-min Rain = 0
KSP1 230145Z 04011KT 17/13 A2997 RMK A01 T01680134  RH  083%=      5-min Rain = 0
KSP1 230150Z 05010KT 17/13 A2997 RMK A01 T01680134  RH  084%=      5-min Rain = 0
KSP1 230155Z 05011KT 17/13 A2998 RMK A01 T01660134  RH  084%=      5-min Rain = 0
KSP1 230200Z 05010KT 17/13 A2998 RMK A01 T01660134  RH  085%=      5-min Rain = 0
KSP1 230205Z 05010KT 17/14 A2998 RMK A01 T01650135  RH  086%=      5-min Rain = 0
KSP1 230210Z 04008KT 17/14 A2999 RMK A01 T01660135  RH  086%=      5-min Rain = 0
KSP1 230215Z 03009KT 17/14 A30 RMK A01 T01660135  RH  085%=      5-min Rain = 0
KSP1 230220Z 04009KT 17/14 A30 RMK A01 T01670136  RH  085%=      5-min Rain = 0
KSP1 230225Z 02008KT 17/14 A30 RMK A01 T01670135  RH  085%=      5-min Rain = 0
KSP1 230230Z 02008KT 17/14 A3001 RMK A01 T01660135  RH  085%=      5-min Rain = 0
KSP1 230235Z 02008KT 17/14 A3001 RMK A01 T01660135  RH  085%=      5-min Rain = 0
KSP1 230240Z 04009KT 17/14 A3001 RMK A01 T01660135  RH  086%=      5-min Rain = 0
KSP1 230245Z 04011KT 17/14 A30 RMK A01 T01660135  RH  086%=      5-min Rain = 0
KSP1 230250Z 04010KT 17/14 A2999 RMK A01 T01650135  RH  086%=      5-min Rain = 0
KSP1 230255Z 03010G15KT 16/14 A30 RMK A01 T01640135  RH  086%=      5-min Rain = 0
KSP1 230300Z 04009G14KT 16/14 A30 RMK A01 T01640135  RH  087%=      5-min Rain = 0
KSP1 230305Z 04012G17KT 16/14 A2999 RMK A01 T01640135  RH  087%=      5-min Rain = 0
KSP1 230310Z 04011G17KT 16/14 A2999 RMK A01 T01630135  RH  087%=      5-min Rain = 0
KSP1 230315Z 04009KT 16/14 A30 RMK A01 T01630136  RH  087%=      5-min Rain = 0
KSP1 230320Z 04008G13KT 16/14 A30 RMK A01 T01630136  RH  087%=      5-min Rain = 0
KSP1 230325Z 03009KT 16/14 A30 RMK A01 T01630136  RH  088%=      5-min Rain = 0
KSP1 230330Z 02008KT 16/14 A30 RMK A01 T01620136  RH  088%=      5-min Rain = 0
KSP1 230335Z 02008G14KT 16/14 A30 RMK A01 T01620136  RH  088%=      5-min Rain = 0
KSP1 230340Z 02008KT 16/14 A3001 RMK A01 T01610136  RH  089%=      5-min Rain = 0
KSP1 230345Z 03007KT 16/14 A3001 RMK A01 T01610136  RH  089%=      5-min Rain = 0
KSP1 230350Z 03008KT 16/14 A3001 RMK A01 T01610136  RH  089%=      5-min Rain = 0
KSP1 230355Z 03009KT 16/14 A3001 RMK A01 T01610136  RH  089%=      5-min Rain = 0
KSP1 230400Z 03008KT 16/14 A3001 RMK A01 T01600137  RH  089%=      5-min Rain = 0
KSP1 230405Z 03009KT 16/14 A30 RMK A01 T01600137  RH  090%=      5-min Rain = 0
KSP1 230410Z 02008KT 16/14 A3001 RMK A01 T01590137  RH  090%=      5-min Rain = 0
KSP1 230415Z 02008KT 16/14 A30 RMK A01 T01590137  RH  091%=      5-min Rain = 0
KSP1 230420Z 02008KT 16/14 A30 RMK A01 T01580137  RH  091%=      5-min Rain = 0
KSP1 230425Z 02007KT 16/14 A30 RMK A01 T01580138  RH  091%=      5-min Rain = 0
KSP1 230430Z 02008G14KT 16/14 A30 RMK A01 T01580138  RH  091%=      5-min Rain = 0
KSP1 230435Z 01008KT 16/14 A30 RMK A01 T01590138  RH  091%=      5-min Rain = 0
KSP1 230440Z 36008KT 16/14 A30 RMK A01 T01590138  RH  091%=      5-min Rain = 0
KSP1 230445Z 35007KT 16/14 A30 RMK A01 T01590138  RH  091%=      5-min Rain = 0
KSP1 230450Z 36008KT 16/14 A30 RMK A01 T01590138  RH  091%=      5-min Rain = 0
KSP1 230455Z 36009KT 16/14 A30 RMK A01 T01590138  RH  091%=      5-min Rain = 0

Page generated in 0.0092 seconds.